Hughes, Arkansas
Current Conditions -  °F | °C
As of 7:40 AM on Tuesday 21 Oct 2014 (Local Time) from KAWM Reporting Station
Moderate Fog Moderate Fog  
Wind Chill: 52°   Ceiling: Unl
Heat Index: 52°   Visibility: 0.5mi
Dew Point: 52°   Wind: 0mph
Humidity: 100%   Direction: NA
Pressure: 30.06"   Gusts: NA
Location:  34.95°N, 90.47°W
Report Text: KAWM 211240Z AUTO 00000KT 1/2SM FG CLR 11/11 A3006 RMK AO2 T01110111 $
Loading
Personal Weather Stations






























Interactive Weather Map
Tropical Storm Tracking
New forecast layout! Learn more

10-Day Weather Forecast

Advertisements
Track Severe Weather on mobile